sensor_id;sensor_type;location;lat;lon;timestamp;P1;durP1;ratioP1;P2;durP2;ratioP2
3633;SDS011;1833;42.718;23.270;2023-07-08T00:00:18;39.50;;;36.00;;
3633;SDS011;1833;42.718;23.270;2023-07-08T00:02:45;38.73;;;34.97;;
3633;SDS011;1833;42.718;23.270;2023-07-08T00:05:14;41.37;;;37.07;;
3633;SDS011;1833;42.718;23.270;2023-07-08T00:07:41;39.70;;;35.87;;
3633;SDS011;1833;42.718;23.270;2023-07-08T00:10:10;39.13;;;35.60;;
3633;SDS011;1833;42.718;23.270;2023-07-08T00:12:38;39.53;;;35.90;;
3633;SDS011;1833;42.718;23.270;2023-07-08T00:15:07;38.60;;;35.07;;
3633;SDS011;1833;42.718;23.270;2023-07-08T00:17:35;38.93;;;35.10;;
3633;SDS011;1833;42.718;23.270;2023-07-08T00:20:07;39.00;;;35.57;;
3633;SDS011;1833;42.718;23.270;2023-07-08T00:22:36;40.77;;;36.60;;
3633;SDS011;1833;42.718;23.270;2023-07-08T00:25:06;41.07;;;37.30;;
3633;SDS011;1833;42.718;23.270;2023-07-08T00:27:33;39.60;;;36.20;;
3633;SDS011;1833;42.718;23.270;2023-07-08T00:30:01;41.33;;;36.90;;
3633;SDS011;1833;42.718;23.270;2023-07-08T00:32:29;40.63;;;36.53;;
3633;SDS011;1833;42.718;23.270;2023-07-08T00:34:56;41.10;;;36.90;;
3633;SDS011;1833;42.718;23.270;2023-07-08T00:37:24;41.00;;;37.07;;
3633;SDS011;1833;42.718;23.270;2023-07-08T00:39:55;40.87;;;36.37;;
3633;SDS011;1833;42.718;23.270;2023-07-08T00:42:22;41.30;;;37.33;;
3633;SDS011;1833;42.718;23.270;2023-07-08T00:44:51;40.73;;;36.90;;
3633;SDS011;1833;42.718;23.270;2023-07-08T00:47:18;37.47;;;34.17;;
3633;SDS011;1833;42.718;23.270;2023-07-08T00:49:49;39.03;;;35.30;;
3633;SDS011;1833;42.718;23.270;2023-07-08T00:52:22;37.87;;;34.40;;
3633;SDS011;1833;42.718;23.270;2023-07-08T00:54:50;39.10;;;35.63;;
3633;SDS011;1833;42.718;23.270;2023-07-08T00:57:18;37.50;;;33.90;;
3633;SDS011;1833;42.718;23.270;2023-07-08T00:59:47;36.40;;;33.17;;
3633;SDS011;1833;42.718;23.270;2023-07-08T01:02:15;36.23;;;33.03;;
3633;SDS011;1833;42.718;23.270;2023-07-08T01:04:47;35.77;;;32.80;;
3633;SDS011;1833;42.718;23.270;2023-07-08T01:07:17;36.33;;;33.13;;
3633;SDS011;1833;42.718;23.270;2023-07-08T01:09:47;36.43;;;33.17;;
3633;SDS011;1833;42.718;23.270;2023-07-08T01:12:16;37.23;;;33.93;;
3633;SDS011;1833;42.718;23.270;2023-07-08T01:14:45;36.47;;;33.00;;
3633;SDS011;1833;42.718;23.270;2023-07-08T01:17:13;36.10;;;32.90;;
3633;SDS011;1833;42.718;23.270;2023-07-08T01:19:40;35.13;;;32.03;;
3633;SDS011;1833;42.718;23.270;2023-07-08T01:22:09;48.47;;;33.10;;
3633;SDS011;1833;42.718;23.270;2023-07-08T01:24:38;34.37;;;31.17;;
3633;SDS011;1833;42.718;23.270;2023-07-08T01:27:07;35.30;;;31.60;;
3633;SDS011;1833;42.718;23.270;2023-07-08T01:29:35;32.83;;;30.23;;
3633;SDS011;1833;42.718;23.270;2023-07-08T01:32:02;34.67;;;31.67;;
3633;SDS011;1833;42.718;23.270;2023-07-08T01:34:31;34.23;;;31.17;;
3633;SDS011;1833;42.718;23.270;2023-07-08T01:36:59;33.80;;;31.00;;
3633;SDS011;1833;42.718;23.270;2023-07-08T01:39:29;33.90;;;30.80;;
3633;SDS011;1833;42.718;23.270;2023-07-08T01:41:56;35.40;;;32.37;;
3633;SDS011;1833;42.718;23.270;2023-07-08T01:44:27;35.20;;;32.20;;
3633;SDS011;1833;42.718;23.270;2023-07-08T01:46:55;34.83;;;31.50;;
3633;SDS011;1833;42.718;23.270;2023-07-08T01:49:24;35.43;;;32.03;;
3633;SDS011;1833;42.718;23.270;2023-07-08T01:51:52;35.93;;;32.50;;
3633;SDS011;1833;42.718;23.270;2023-07-08T01:54:19;38.63;;;35.33;;
3633;SDS011;1833;42.718;23.270;2023-07-08T01:56:48;33.63;;;30.50;;
3633;SDS011;1833;42.718;23.270;2023-07-08T01:59:21;33.97;;;30.47;;
3633;SDS011;1833;42.718;23.270;2023-07-08T02:01:48;35.03;;;31.73;;
3633;SDS011;1833;42.718;23.270;2023-07-08T02:04:19;33.43;;;30.73;;
3633;SDS011;1833;42.718;23.270;2023-07-08T02:06:50;35.40;;;32.00;;
3633;SDS011;1833;42.718;23.270;2023-07-08T02:09:18;34.57;;;31.50;;
3633;SDS011;1833;42.718;23.270;2023-07-08T02:11:45;34.30;;;31.33;;
3633;SDS011;1833;42.718;23.270;2023-07-08T02:14:14;35.70;;;32.70;;
3633;SDS011;1833;42.718;23.270;2023-07-08T02:16:41;33.40;;;30.60;;
3633;SDS011;1833;42.718;23.270;2023-07-08T02:19:10;34.77;;;31.63;;
3633;SDS011;1833;42.718;23.270;2023-07-08T02:21:37;33.27;;;30.57;;
3633;SDS011;1833;42.718;23.270;2023-07-08T02:24:05;34.07;;;31.10;;
3633;SDS011;1833;42.718;23.270;2023-07-08T02:26:32;34.47;;;31.33;;
3633;SDS011;1833;42.718;23.270;2023-07-08T02:28:59;41.03;;;31.07;;
3633;SDS011;1833;42.718;23.270;2023-07-08T02:31:29;36.07;;;31.50;;
3633;SDS011;1833;42.718;23.270;2023-07-08T02:33:56;33.93;;;30.90;;
3633;SDS011;1833;42.718;23.270;2023-07-08T02:36:23;32.83;;;30.03;;
3633;SDS011;1833;42.718;23.270;2023-07-08T02:38:51;32.33;;;29.43;;
3633;SDS011;1833;42.718;23.270;2023-07-08T02:41:18;32.80;;;29.83;;
3633;SDS011;1833;42.718;23.270;2023-07-08T02:43:45;32.83;;;29.93;;
3633;SDS011;1833;42.718;23.270;2023-07-08T02:46:12;29.60;;;27.40;;
3633;SDS011;1833;42.718;23.270;2023-07-08T02:48:41;33.37;;;30.67;;
3633;SDS011;1833;42.718;23.270;2023-07-08T02:51:08;32.93;;;30.23;;
3633;SDS011;1833;42.718;23.270;2023-07-08T02:53:36;32.07;;;29.47;;
3633;SDS011;1833;42.718;23.270;2023-07-08T02:56:03;32.70;;;29.97;;
3633;SDS011;1833;42.718;23.270;2023-07-08T02:58:30;33.10;;;30.40;;
3633;SDS011;1833;42.718;23.270;2023-07-08T03:00:59;33.20;;;30.20;;
3633;SDS011;1833;42.718;23.270;2023-07-08T03:03:26;33.43;;;30.60;;
3633;SDS011;1833;42.718;23.270;2023-07-08T03:05:56;34.53;;;31.57;;
3633;SDS011;1833;42.718;23.270;2023-07-08T03:08:24;34.17;;;30.60;;
3633;SDS011;1833;42.718;23.270;2023-07-08T03:10:54;36.97;;;33.60;;
3633;SDS011;1833;42.718;23.270;2023-07-08T03:13:21;34.33;;;31.43;;
3633;SDS011;1833;42.718;23.270;2023-07-08T03:15:49;34.07;;;31.27;;
3633;SDS011;1833;42.718;23.270;2023-07-08T03:18:16;33.40;;;30.60;;
3633;SDS011;1833;42.718;23.270;2023-07-08T03:20:47;32.70;;;30.10;;
3633;SDS011;1833;42.718;23.270;2023-07-08T03:23:15;32.80;;;29.90;;
3633;SDS011;1833;42.718;23.270;2023-07-08T03:25:43;33.47;;;30.43;;
3633;SDS011;1833;42.718;23.270;2023-07-08T03:28:10;32.47;;;29.83;;
3633;SDS011;1833;42.718;23.270;2023-07-08T03:30:40;31.53;;;28.83;;
3633;SDS011;1833;42.718;23.270;2023-07-08T03:33:07;30.97;;;28.37;;
3633;SDS011;1833;42.718;23.270;2023-07-08T03:35:34;32.27;;;29.37;;
3633;SDS011;1833;42.718;23.270;2023-07-08T03:38:02;31.10;;;28.50;;
3633;SDS011;1833;42.718;23.270;2023-07-08T03:40:31;31.80;;;29.10;;
3633;SDS011;1833;42.718;23.270;2023-07-08T03:42:58;34.63;;;29.93;;
3633;SDS011;1833;42.718;23.270;2023-07-08T03:45:25;31.57;;;28.87;;
3633;SDS011;1833;42.718;23.270;2023-07-08T03:47:53;29.77;;;27.27;;
3633;SDS011;1833;42.718;23.270;2023-07-08T03:50:21;31.20;;;28.33;;
3633;SDS011;1833;42.718;23.270;2023-07-08T03:52:49;30.90;;;28.30;;
3633;SDS011;1833;42.718;23.270;2023-07-08T03:55:16;31.63;;;29.03;;
3633;SDS011;1833;42.718;23.270;2023-07-08T03:57:45;32.33;;;29.07;;
3633;SDS011;1833;42.718;23.270;2023-07-08T04:00:12;31.60;;;28.90;;
3633;SDS011;1833;42.718;23.270;2023-07-08T04:02:40;29.10;;;26.63;;
3633;SDS011;1833;42.718;23.270;2023-07-08T04:05:08;31.00;;;28.10;;
3633;SDS011;1833;42.718;23.270;2023-07-08T04:07:36;31.37;;;28.67;;
3633;SDS011;1833;42.718;23.270;2023-07-08T04:10:04;30.93;;;28.33;;
3633;SDS011;1833;42.718;23.270;2023-07-08T04:12:31;31.10;;;28.33;;
3633;SDS011;1833;42.718;23.270;2023-07-08T04:15:00;32.53;;;29.30;;
3633;SDS011;1833;42.718;23.270;2023-07-08T04:17:27;33.00;;;30.10;;
3633;SDS011;1833;42.718;23.270;2023-07-08T04:19:54;31.50;;;28.80;;
3633;SDS011;1833;42.718;23.270;2023-07-08T04:22:22;35.23;;;31.73;;
3633;SDS011;1833;42.718;23.270;2023-07-08T04:24:50;31.97;;;29.00;;
3633;SDS011;1833;42.718;23.270;2023-07-08T04:27:17;32.57;;;29.77;;
3633;SDS011;1833;42.718;23.270;2023-07-08T04:29:44;33.00;;;30.00;;
3633;SDS011;1833;42.718;23.270;2023-07-08T04:32:13;31.83;;;29.10;;
3633;SDS011;1833;42.718;23.270;2023-07-08T04:34:40;32.00;;;29.10;;
3633;SDS011;1833;42.718;23.270;2023-07-08T04:37:08;32.93;;;29.97;;
3633;SDS011;1833;42.718;23.270;2023-07-08T04:39:35;33.50;;;30.10;;
3633;SDS011;1833;42.718;23.270;2023-07-08T04:42:03;33.20;;;30.20;;
3633;SDS011;1833;42.718;23.270;2023-07-08T04:44:30;32.80;;;29.70;;
3633;SDS011;1833;42.718;23.270;2023-07-08T04:46:57;34.10;;;31.20;;
3633;SDS011;1833;42.718;23.270;2023-07-08T04:49:26;33.93;;;30.70;;
3633;SDS011;1833;42.718;23.270;2023-07-08T04:51:56;33.20;;;30.40;;
3633;SDS011;1833;42.718;23.270;2023-07-08T04:54:24;34.00;;;31.00;;
3633;SDS011;1833;42.718;23.270;2023-07-08T04:56:51;34.87;;;31.47;;
3633;SDS011;1833;42.718;23.270;2023-07-08T04:59:20;35.27;;;32.17;;
3633;SDS011;1833;42.718;23.270;2023-07-08T05:01:47;35.37;;;32.07;;
3633;SDS011;1833;42.718;23.270;2023-07-08T05:04:15;35.97;;;32.53;;
3633;SDS011;1833;42.718;23.270;2023-07-08T05:06:44;33.93;;;31.00;;
3633;SDS011;1833;42.718;23.270;2023-07-08T05:09:12;36.23;;;32.83;;
3633;SDS011;1833;42.718;23.270;2023-07-08T05:11:39;35.00;;;31.90;;
3633;SDS011;1833;42.718;23.270;2023-07-08T05:14:06;35.87;;;32.63;;
3633;SDS011;1833;42.718;23.270;2023-07-08T05:16:34;36.03;;;32.85;;
3633;SDS011;1833;42.718;23.270;2023-07-08T05:19:02;42.17;;;38.20;;
3633;SDS011;1833;42.718;23.270;2023-07-08T05:21:29;39.08;;;35.20;;
3633;SDS011;1833;42.718;23.270;2023-07-08T05:24:00;35.22;;;32.03;;
3633;SDS011;1833;42.718;23.270;2023-07-08T05:26:27;33.35;;;30.45;;
3633;SDS011;1833;42.718;23.270;2023-07-08T05:28:55;34.10;;;31.27;;
3633;SDS011;1833;42.718;23.270;2023-07-08T05:31:22;36.08;;;32.45;;
3633;SDS011;1833;42.718;23.270;2023-07-08T05:33:49;36.47;;;33.08;;
3633;SDS011;1833;42.718;23.270;2023-07-08T05:36:16;38.40;;;34.90;;
3633;SDS011;1833;42.718;23.270;2023-07-08T05:38:43;36.15;;;32.92;;
3633;SDS011;1833;42.718;23.270;2023-07-08T05:41:12;36.58;;;33.38;;
3633;SDS011;1833;42.718;23.270;2023-07-08T05:43:39;35.47;;;32.28;;
3633;SDS011;1833;42.718;23.270;2023-07-08T05:46:07;43.85;;;33.50;;
3633;SDS011;1833;42.718;23.270;2023-07-08T05:48:35;37.07;;;33.83;;
3633;SDS011;1833;42.718;23.270;2023-07-08T05:51:02;33.83;;;31.03;;
3633;SDS011;1833;42.718;23.270;2023-07-08T05:53:30;37.08;;;33.40;;
3633;SDS011;1833;42.718;23.270;2023-07-08T05:55:57;37.38;;;34.05;;
3633;SDS011;1833;42.718;23.270;2023-07-08T05:58:25;38.30;;;34.90;;
3633;SDS011;1833;42.718;23.270;2023-07-08T06:00:56;35.33;;;32.23;;
3633;SDS011;1833;42.718;23.270;2023-07-08T06:03:23;35.90;;;32.70;;
3633;SDS011;1833;42.718;23.270;2023-07-08T06:05:50;39.90;;;35.67;;
3633;SDS011;1833;42.718;23.270;2023-07-08T06:08:17;37.07;;;33.67;;
3633;SDS011;1833;42.718;23.270;2023-07-08T06:10:45;33.70;;;30.60;;
3633;SDS011;1833;42.718;23.270;2023-07-08T06:13:12;35.77;;;32.23;;
3633;SDS011;1833;42.718;23.270;2023-07-08T06:15:41;37.27;;;33.83;;
3633;SDS011;1833;42.718;23.270;2023-07-08T06:18:08;33.20;;;30.33;;
3633;SDS011;1833;42.718;23.270;2023-07-08T06:20:35;32.80;;;29.90;;
3633;SDS011;1833;42.718;23.270;2023-07-08T06:23:02;34.57;;;31.57;;
3633;SDS011;1833;42.718;23.270;2023-07-08T06:25:31;33.90;;;30.80;;
3633;SDS011;1833;42.718;23.270;2023-07-08T06:27:58;32.27;;;29.30;;
3633;SDS011;1833;42.718;23.270;2023-07-08T06:30:25;34.70;;;31.43;;
3633;SDS011;1833;42.718;23.270;2023-07-08T06:32:54;34.60;;;31.30;;
3633;SDS011;1833;42.718;23.270;2023-07-08T06:35:21;34.53;;;31.10;;
3633;SDS011;1833;42.718;23.270;2023-07-08T06:37:48;33.73;;;30.63;;
3633;SDS011;1833;42.718;23.270;2023-07-08T06:40:16;31.60;;;28.60;;
3633;SDS011;1833;42.718;23.270;2023-07-08T06:42:44;32.47;;;29.53;;
3633;SDS011;1833;42.718;23.270;2023-07-08T06:45:12;32.23;;;29.17;;
3633;SDS011;1833;42.718;23.270;2023-07-08T06:47:39;35.77;;;31.97;;
3633;SDS011;1833;42.718;23.270;2023-07-08T06:50:08;34.85;;;31.48;;
3633;SDS011;1833;42.718;23.270;2023-07-08T06:52:36;33.50;;;30.50;;
3633;SDS011;1833;42.718;23.270;2023-07-08T06:55:05;32.22;;;29.17;;
3633;SDS011;1833;42.718;23.270;2023-07-08T06:57:32;33.85;;;30.45;;
3633;SDS011;1833;42.718;23.270;2023-07-08T06:59:59;33.65;;;30.65;;
3633;SDS011;1833;42.718;23.270;2023-07-08T07:02:28;33.45;;;30.55;;
3633;SDS011;1833;42.718;23.270;2023-07-08T07:04:55;34.88;;;30.42;;
3633;SDS011;1833;42.718;23.270;2023-07-08T07:07:23;35.58;;;32.03;;
3633;SDS011;1833;42.718;23.270;2023-07-08T07:09:51;34.53;;;31.35;;
3633;SDS011;1833;42.718;23.270;2023-07-08T07:12:18;35.95;;;32.53;;
3633;SDS011;1833;42.718;23.270;2023-07-08T07:14:45;34.88;;;31.48;;
3633;SDS011;1833;42.718;23.270;2023-07-08T07:17:14;34.72;;;31.70;;
3633;SDS011;1833;42.718;23.270;2023-07-08T07:19:42;35.60;;;32.50;;
3633;SDS011;1833;42.718;23.270;2023-07-08T07:22:09;34.97;;;31.90;;
3633;SDS011;1833;42.718;23.270;2023-07-08T07:24:38;34.85;;;31.75;;
3633;SDS011;1833;42.718;23.270;2023-07-08T07:27:05;32.73;;;29.93;;
3633;SDS011;1833;42.718;23.270;2023-07-08T07:29:38;33.67;;;30.40;;
3633;SDS011;1833;42.718;23.270;2023-07-08T07:32:06;33.63;;;30.63;;
3633;SDS011;1833;42.718;23.270;2023-07-08T07:34:33;34.97;;;31.97;;
3633;SDS011;1833;42.718;23.270;2023-07-08T07:37:00;33.73;;;30.73;;
3633;SDS011;1833;42.718;23.270;2023-07-08T07:39:28;34.17;;;31.13;;
3633;SDS011;1833;42.718;23.270;2023-07-08T07:41:56;31.27;;;28.50;;
3633;SDS011;1833;42.718;23.270;2023-07-08T07:44:23;34.47;;;31.33;;
3633;SDS011;1833;42.718;23.270;2023-07-08T07:46:52;34.00;;;31.10;;
3633;SDS011;1833;42.718;23.270;2023-07-08T07:49:20;32.77;;;29.77;;
3633;SDS011;1833;42.718;23.270;2023-07-08T07:51:47;31.93;;;29.23;;
3633;SDS011;1833;42.718;23.270;2023-07-08T07:54:15;32.40;;;29.47;;
3633;SDS011;1833;42.718;23.270;2023-07-08T07:56:42;34.63;;;31.50;;
3633;SDS011;1833;42.718;23.270;2023-07-08T07:59:10;33.93;;;30.90;;
3633;SDS011;1833;42.718;23.270;2023-07-08T08:01:38;34.50;;;31.50;;
3633;SDS011;1833;42.718;23.270;2023-07-08T08:04:07;33.27;;;30.37;;
3633;SDS011;1833;42.718;23.270;2023-07-08T08:06:34;35.57;;;32.53;;
3633;SDS011;1833;42.718;23.270;2023-07-08T08:09:02;35.27;;;31.90;;
3633;SDS011;1833;42.718;23.270;2023-07-08T08:11:29;34.97;;;31.93;;
3633;SDS011;1833;42.718;23.270;2023-07-08T08:13:56;35.00;;;31.80;;
3633;SDS011;1833;42.718;23.270;2023-07-08T08:16:26;36.17;;;31.80;;
3633;SDS011;1833;42.718;23.270;2023-07-08T08:18:53;33.30;;;30.60;;
3633;SDS011;1833;42.718;23.270;2023-07-08T08:21:21;34.37;;;31.27;;
3633;SDS011;1833;42.718;23.270;2023-07-08T08:23:48;34.30;;;31.20;;
3633;SDS011;1833;42.718;23.270;2023-07-08T08:26:15;34.43;;;31.33;;
3633;SDS011;1833;42.718;23.270;2023-07-08T08:28:42;33.80;;;31.00;;
3633;SDS011;1833;42.718;23.270;2023-07-08T08:31:10;33.80;;;30.60;;
3633;SDS011;1833;42.718;23.270;2023-07-08T08:33:38;32.80;;;29.83;;
3633;SDS011;1833;42.718;23.270;2023-07-08T08:36:06;35.37;;;31.80;;
3633;SDS011;1833;42.718;23.270;2023-07-08T08:38:33;35.90;;;32.30;;
3633;SDS011;1833;42.718;23.270;2023-07-08T08:41:02;35.50;;;31.67;;
3633;SDS011;1833;42.718;23.270;2023-07-08T08:43:31;34.00;;;31.13;;
3633;SDS011;1833;42.718;23.270;2023-07-08T08:46:03;36.07;;;32.87;;
3633;SDS011;1833;42.718;23.270;2023-07-08T08:48:32;33.43;;;30.43;;
3633;SDS011;1833;42.718;23.270;2023-07-08T08:51:04;38.27;;;34.43;;
3633;SDS011;1833;42.718;23.270;2023-07-08T08:53:31;35.13;;;32.10;;
3633;SDS011;1833;42.718;23.270;2023-07-08T08:55:59;35.53;;;32.30;;
3633;SDS011;1833;42.718;23.270;2023-07-08T08:58:32;36.60;;;33.23;;
3633;SDS011;1833;42.718;23.270;2023-07-08T09:01:01;34.73;;;31.60;;
3633;SDS011;1833;42.718;23.270;2023-07-08T09:03:36;40.20;;;36.00;;
3633;SDS011;1833;42.718;23.270;2023-07-08T09:06:10;34.10;;;31.27;;
3633;SDS011;1833;42.718;23.270;2023-07-08T09:08:38;35.87;;;32.63;;
3633;SDS011;1833;42.718;23.270;2023-07-08T09:11:10;35.30;;;32.00;;
3633;SDS011;1833;42.718;23.270;2023-07-08T09:13:39;33.77;;;30.87;;
3633;SDS011;1833;42.718;23.270;2023-07-08T09:16:07;34.70;;;31.80;;
3633;SDS011;1833;42.718;23.270;2023-07-08T09:18:45;33.80;;;30.90;;
3633;SDS011;1833;42.718;23.270;2023-07-08T09:21:19;33.63;;;30.90;;
3633;SDS011;1833;42.718;23.270;2023-07-08T09:23:47;34.83;;;31.47;;
3633;SDS011;1833;42.718;23.270;2023-07-08T09:26:17;34.20;;;31.00;;
3633;SDS011;1833;42.718;23.270;2023-07-08T09:28:45;37.80;;;33.87;;
3633;SDS011;1833;42.718;23.270;2023-07-08T09:31:18;40.90;;;36.60;;
3633;SDS011;1833;42.718;23.270;2023-07-08T09:33:48;34.97;;;31.77;;
3633;SDS011;1833;42.718;23.270;2023-07-08T09:36:21;33.67;;;30.57;;
3633;SDS011;1833;42.718;23.270;2023-07-08T09:38:49;32.73;;;29.97;;
3633;SDS011;1833;42.718;23.270;2023-07-08T09:41:28;34.13;;;30.33;;
3633;SDS011;1833;42.718;23.270;2023-07-08T09:44:02;33.83;;;30.93;;
3633;SDS011;1833;42.718;23.270;2023-07-08T09:46:34;32.07;;;29.27;;
3633;SDS011;1833;42.718;23.270;2023-07-08T09:49:09;34.08;;;30.98;;
3633;SDS011;1833;42.718;23.270;2023-07-08T09:51:37;34.67;;;31.67;;
3633;SDS011;1833;42.718;23.270;2023-07-08T09:54:05;35.58;;;32.47;;
3633;SDS011;1833;42.718;23.270;2023-07-08T09:56:32;32.88;;;30.08;;
3633;SDS011;1833;42.718;23.270;2023-07-08T09:58:59;35.63;;;32.45;;
3633;SDS011;1833;42.718;23.270;2023-07-08T10:01:28;36.20;;;32.95;;
3633;SDS011;1833;42.718;23.270;2023-07-08T10:03:57;36.83;;;32.88;;
3633;SDS011;1833;42.718;23.270;2023-07-08T10:06:25;35.40;;;32.30;;
3633;SDS011;1833;42.718;23.270;2023-07-08T10:08:54;33.92;;;30.88;;
3633;SDS011;1833;42.718;23.270;2023-07-08T10:11:26;32.70;;;29.80;;
3633;SDS011;1833;42.718;23.270;2023-07-08T10:13:56;34.08;;;31.05;;
3633;SDS011;1833;42.718;23.270;2023-07-08T10:16:26;33.13;;;30.33;;
3633;SDS011;1833;42.718;23.270;2023-07-08T10:18:54;32.30;;;29.45;;
3633;SDS011;1833;42.718;23.270;2023-07-08T10:21:27;32.33;;;29.45;;
3633;SDS011;1833;42.718;23.270;2023-07-08T10:23:59;32.97;;;30.10;;
3633;SDS011;1833;42.718;23.270;2023-07-08T10:26:31;33.22;;;30.60;;
3633;SDS011;1833;42.718;23.270;2023-07-08T10:29:04;34.67;;;31.70;;
3633;SDS011;1833;42.718;23.270;2023-07-08T10:31:35;34.40;;;31.60;;
3633;SDS011;1833;42.718;23.270;2023-07-08T10:34:18;33.60;;;30.80;;
3633;SDS011;1833;42.718;23.270;2023-07-08T10:36:50;33.90;;;30.88;;
3633;SDS011;1833;42.718;23.270;2023-07-08T10:42:12;34.20;;;31.30;;
3633;SDS011;1833;42.718;23.270;2023-07-08T10:44:46;33.25;;;30.30;;
3633;SDS011;1833;42.718;23.270;2023-07-08T10:47:19;32.55;;;29.85;;
3633;SDS011;1833;42.718;23.270;2023-07-08T10:49:52;33.63;;;30.80;;
3633;SDS011;1833;42.718;23.270;2023-07-08T10:52:27;32.95;;;30.05;;
3633;SDS011;1833;42.718;23.270;2023-07-08T10:55:01;33.38;;;30.58;;
3633;SDS011;1833;42.718;23.270;2023-07-08T10:57:40;34.55;;;31.63;;
3633;SDS011;1833;42.718;23.270;2023-07-08T11:00:14;33.90;;;30.80;;
3633;SDS011;1833;42.718;23.270;2023-07-08T11:05:29;41.70;;;37.55;;
3633;SDS011;1833;42.718;23.270;2023-07-08T11:07:59;36.10;;;32.72;;
3633;SDS011;1833;42.718;23.270;2023-07-08T11:10:28;32.30;;;29.60;;
3633;SDS011;1833;42.718;23.270;2023-07-08T11:12:59;33.13;;;30.23;;
3633;SDS011;1833;42.718;23.270;2023-07-08T11:15:28;35.38;;;32.47;;
3633;SDS011;1833;42.718;23.270;2023-07-08T11:17:57;33.30;;;30.60;;
3633;SDS011;1833;42.718;23.270;2023-07-08T11:20:28;32.00;;;29.08;;
3633;SDS011;1833;42.718;23.270;2023-07-08T11:23:00;33.33;;;30.08;;
3633;SDS011;1833;42.718;23.270;2023-07-08T11:25:29;32.58;;;29.58;;
3633;SDS011;1833;42.718;23.270;2023-07-08T11:27:56;32.88;;;30.02;;
3633;SDS011;1833;42.718;23.270;2023-07-08T11:30:26;34.03;;;30.85;;
3633;SDS011;1833;42.718;23.270;2023-07-08T11:32:57;32.58;;;29.83;;
3633;SDS011;1833;42.718;23.270;2023-07-08T11:35:27;31.63;;;28.92;;
3633;SDS011;1833;42.718;23.270;2023-07-08T11:37:56;32.40;;;29.15;;
3633;SDS011;1833;42.718;23.270;2023-07-08T11:40:23;33.47;;;30.58;;
3633;SDS011;1833;42.718;23.270;2023-07-08T11:42:51;33.90;;;30.50;;
3633;SDS011;1833;42.718;23.270;2023-07-08T11:45:23;33.45;;;30.63;;
3633;SDS011;1833;42.718;23.270;2023-07-08T11:47:53;34.20;;;30.80;;
3633;SDS011;1833;42.718;23.270;2023-07-08T11:50:21;35.75;;;32.58;;
3633;SDS011;1833;42.718;23.270;2023-07-08T11:52:52;32.88;;;30.02;;
3633;SDS011;1833;42.718;23.270;2023-07-08T11:55:21;36.05;;;32.67;;
3633;SDS011;1833;42.718;23.270;2023-07-08T11:57:53;33.88;;;30.75;;
3633;SDS011;1833;42.718;23.270;2023-07-08T12:00:22;35.58;;;31.38;;
3633;SDS011;1833;42.718;23.270;2023-07-08T12:02:52;33.67;;;30.57;;
3633;SDS011;1833;42.718;23.270;2023-07-08T12:05:29;33.83;;;30.92;;
3633;SDS011;1833;42.718;23.270;2023-07-08T12:07:57;33.40;;;30.55;;
3633;SDS011;1833;42.718;23.270;2023-07-08T12:10:28;32.43;;;29.50;;
3633;SDS011;1833;42.718;23.270;2023-07-08T12:12:55;34.33;;;30.77;;
3633;SDS011;1833;42.718;23.270;2023-07-08T12:15:23;32.90;;;29.80;;
3633;SDS011;1833;42.718;23.270;2023-07-08T12:17:50;31.73;;;28.80;;
3633;SDS011;1833;42.718;23.270;2023-07-08T12:20:19;33.33;;;30.43;;
3633;SDS011;1833;42.718;23.270;2023-07-08T12:22:49;32.90;;;29.77;;
3633;SDS011;1833;42.718;23.270;2023-07-08T12:25:17;32.83;;;29.70;;
3633;SDS011;1833;42.718;23.270;2023-07-08T12:27:45;33.30;;;30.30;;
3633;SDS011;1833;42.718;23.270;2023-07-08T12:30:13;32.88;;;29.67;;
3633;SDS011;1833;42.718;23.270;2023-07-08T12:32:40;32.97;;;29.50;;
3633;SDS011;1833;42.718;23.270;2023-07-08T12:35:09;32.83;;;29.52;;
3633;SDS011;1833;42.718;23.270;2023-07-08T12:37:41;32.70;;;29.80;;
3633;SDS011;1833;42.718;23.270;2023-07-08T12:40:11;33.93;;;30.83;;
3633;SDS011;1833;42.718;23.270;2023-07-08T12:42:38;33.00;;;30.20;;
3633;SDS011;1833;42.718;23.270;2023-07-08T12:45:11;33.10;;;30.20;;
3633;SDS011;1833;42.718;23.270;2023-07-08T12:47:40;31.37;;;28.67;;
3633;SDS011;1833;42.718;23.270;2023-07-08T12:50:08;32.20;;;29.40;;
3633;SDS011;1833;42.718;23.270;2023-07-08T12:52:35;31.43;;;28.87;;
3633;SDS011;1833;42.718;23.270;2023-07-08T12:55:03;32.73;;;30.03;;
3633;SDS011;1833;42.718;23.270;2023-07-08T12:57:31;34.67;;;31.47;;
3633;SDS011;1833;42.718;23.270;2023-07-08T12:59:58;36.70;;;33.80;;
3633;SDS011;1833;42.718;23.270;2023-07-08T13:02:26;35.40;;;31.97;;
3633;SDS011;1833;42.718;23.270;2023-07-08T13:04:55;33.57;;;30.87;;
3633;SDS011;1833;42.718;23.270;2023-07-08T13:07:28;32.83;;;30.00;;
3633;SDS011;1833;42.718;23.270;2023-07-08T13:09:58;32.40;;;29.63;;
3633;SDS011;1833;42.718;23.270;2023-07-08T13:12:26;31.73;;;29.03;;
3633;SDS011;1833;42.718;23.270;2023-07-08T13:14:55;31.03;;;28.53;;
3633;SDS011;1833;42.718;23.270;2023-07-08T13:17:25;32.93;;;29.80;;
3633;SDS011;1833;42.718;23.270;2023-07-08T13:19:52;32.37;;;29.70;;
3633;SDS011;1833;42.718;23.270;2023-07-08T13:22:20;34.03;;;31.13;;
3633;SDS011;1833;42.718;23.270;2023-07-08T13:24:47;36.40;;;30.40;;
3633;SDS011;1833;42.718;23.270;2023-07-08T13:27:23;32.63;;;29.77;;
3633;SDS011;1833;42.718;23.270;2023-07-08T13:29:51;33.67;;;30.87;;
3633;SDS011;1833;42.718;23.270;2023-07-08T13:32:20;32.53;;;29.63;;
3633;SDS011;1833;42.718;23.270;2023-07-08T13:34:48;33.77;;;30.97;;
3633;SDS011;1833;42.718;23.270;2023-07-08T13:37:16;32.80;;;29.90;;
3633;SDS011;1833;42.718;23.270;2023-07-08T13:39:46;31.57;;;28.67;;
3633;SDS011;1833;42.718;23.270;2023-07-08T13:42:13;34.00;;;31.10;;
3633;SDS011;1833;42.718;23.270;2023-07-08T13:44:44;33.70;;;30.40;;
3633;SDS011;1833;42.718;23.270;2023-07-08T13:47:23;31.00;;;28.30;;
3633;SDS011;1833;42.718;23.270;2023-07-08T13:49:53;31.00;;;28.30;;
3633;SDS011;1833;42.718;23.270;2023-07-08T13:52:21;33.67;;;30.57;;
3633;SDS011;1833;42.718;23.270;2023-07-08T13:54:50;31.00;;;28.50;;
3633;SDS011;1833;42.718;23.270;2023-07-08T13:57:19;31.40;;;28.60;;
3633;SDS011;1833;42.718;23.270;2023-07-08T13:59:46;30.00;;;27.40;;
3633;SDS011;1833;42.718;23.270;2023-07-08T14:02:14;32.10;;;28.93;;
3633;SDS011;1833;42.718;23.270;2023-07-08T14:04:44;30.93;;;28.00;;
3633;SDS011;1833;42.718;23.270;2023-07-08T14:07:13;32.50;;;29.70;;
3633;SDS011;1833;42.718;23.270;2023-07-08T14:09:42;31.57;;;28.33;;
3633;SDS011;1833;42.718;23.270;2023-07-08T14:12:09;32.00;;;28.20;;
3633;SDS011;1833;42.718;23.270;2023-07-08T14:14:36;32.00;;;29.20;;
3633;SDS011;1833;42.718;23.270;2023-07-08T14:17:04;31.57;;;28.80;;
3633;SDS011;1833;42.718;23.270;2023-07-08T14:19:32;31.93;;;28.83;;
3633;SDS011;1833;42.718;23.270;2023-07-08T14:22:02;31.70;;;29.00;;
3633;SDS011;1833;42.718;23.270;2023-07-08T14:24:36;32.87;;;29.97;;
3633;SDS011;1833;42.718;23.270;2023-07-08T14:27:04;31.37;;;28.57;;
3633;SDS011;1833;42.718;23.270;2023-07-08T14:29:35;33.30;;;30.53;;
3633;SDS011;1833;42.718;23.270;2023-07-08T14:32:02;32.93;;;29.90;;
3633;SDS011;1833;42.718;23.270;2023-07-08T14:34:29;32.90;;;30.17;;
3633;SDS011;1833;42.718;23.270;2023-07-08T14:36:56;31.50;;;28.80;;
3633;SDS011;1833;42.718;23.270;2023-07-08T14:39:25;32.73;;;29.83;;
3633;SDS011;1833;42.718;23.270;2023-07-08T14:41:52;33.20;;;30.20;;
3633;SDS011;1833;42.718;23.270;2023-07-08T14:44:20;34.13;;;31.07;;
3633;SDS011;1833;42.718;23.270;2023-07-08T14:46:48;31.20;;;28.50;;